createdAt,value
2018-05-11T00:00:09.970Z,0.00
2018-05-11T00:01:09.960Z,0.00
2018-05-11T00:02:09.952Z,0.00
2018-05-11T00:03:09.944Z,0.00
2018-05-11T00:04:09.935Z,0.00
2018-05-11T00:05:09.936Z,0.00
2018-05-11T00:06:09.918Z,0.00
2018-05-11T00:07:09.910Z,0.00
2018-05-11T00:08:09.902Z,0.00
2018-05-11T00:09:09.892Z,0.00
2018-05-11T00:10:09.886Z,0.00
2018-05-11T00:11:09.876Z,0.00
2018-05-11T00:12:09.868Z,0.00
2018-05-11T00:13:09.859Z,0.00
2018-05-11T00:14:09.854Z,0.00
2018-05-11T00:15:09.843Z,0.00
2018-05-11T00:16:09.834Z,0.00
2018-05-11T00:17:09.825Z,0.00
2018-05-11T00:18:09.816Z,0.00
2018-05-11T00:19:09.815Z,0.00
2018-05-11T00:20:09.800Z,0.00
2018-05-11T00:21:09.791Z,0.00
2018-05-11T00:22:09.783Z,0.00
2018-05-11T00:23:09.774Z,0.00
2018-05-11T00:24:09.767Z,0.00
2018-05-11T00:25:09.757Z,0.00
2018-05-11T00:26:09.749Z,0.00
2018-05-11T00:27:09.740Z,0.00
2018-05-11T00:28:09.735Z,0.00
2018-05-11T00:29:09.722Z,0.00
2018-05-11T00:30:09.714Z,0.00
2018-05-11T00:31:09.710Z,0.00
2018-05-11T00:32:09.700Z,0.00
2018-05-11T00:33:09.689Z,0.00
2018-05-11T00:34:09.680Z,0.00
2018-05-11T00:35:09.672Z,0.00
2018-05-11T00:36:09.664Z,0.00
2018-05-11T00:37:09.654Z,0.00
2018-05-11T00:38:09.647Z,0.00
2018-05-11T00:39:09.638Z,0.00
2018-05-11T00:40:09.630Z,0.00
2018-05-11T00:41:09.621Z,0.00
2018-05-11T00:42:09.612Z,0.00
2018-05-11T00:43:09.605Z,0.00
2018-05-11T00:44:09.596Z,0.00
2018-05-11T00:45:09.587Z,0.00
2018-05-11T00:46:09.578Z,0.00
2018-05-11T00:47:09.571Z,0.00
2018-05-11T00:48:09.563Z,0.00
2018-05-11T00:49:09.555Z,0.00
2018-05-11T00:50:09.545Z,0.00
2018-05-11T00:51:09.604Z,0.00
2018-05-11T00:52:09.528Z,0.00
2018-05-11T00:53:09.518Z,0.00
2018-05-11T00:54:09.510Z,0.00
2018-05-11T00:55:09.504Z,0.00
2018-05-11T00:56:09.493Z,0.00
2018-05-11T00:57:09.484Z,0.00
2018-05-11T00:58:09.475Z,0.00
2018-05-11T00:59:09.467Z,0.00
2018-05-11T01:00:09.459Z,0.00
2018-05-11T01:01:09.454Z,0.00
2018-05-11T01:02:09.440Z,0.00
2018-05-11T01:03:09.432Z,0.00
2018-05-11T01:04:09.424Z,0.00
2018-05-11T01:05:09.414Z,0.00
2018-05-11T01:06:09.408Z,0.00
2018-05-11T01:07:09.396Z,0.00
2018-05-11T01:08:09.388Z,0.00
2018-05-11T01:09:09.379Z,0.00
2018-05-11T01:10:09.370Z,0.00
2018-05-11T01:11:09.362Z,0.00
2018-05-11T01:12:09.353Z,0.00
2018-05-11T01:13:09.343Z,0.00
2018-05-11T01:14:09.335Z,0.00
2018-05-11T01:15:09.326Z,0.00
2018-05-11T01:16:09.318Z,0.00
2018-05-11T01:17:09.307Z,0.00
2018-05-11T01:18:09.302Z,0.00
2018-05-11T01:19:09.290Z,0.00
2018-05-11T01:20:09.281Z,0.00
2018-05-11T01:21:09.272Z,0.00
2018-05-11T01:22:09.316Z,0.00
2018-05-11T01:23:09.254Z,0.00
2018-05-11T01:24:09.245Z,0.00
2018-05-11T01:25:09.236Z,0.00
2018-05-11T01:26:09.227Z,0.00
2018-05-11T01:27:09.219Z,0.00
2018-05-11T01:28:09.209Z,0.00
2018-05-11T01:29:09.201Z,0.00
2018-05-11T01:30:09.191Z,0.00
2018-05-11T01:31:09.182Z,0.00
2018-05-11T01:32:09.173Z,0.00
2018-05-11T01:33:09.167Z,0.00
2018-05-11T01:34:09.155Z,0.00
2018-05-11T01:35:09.146Z,0.00
2018-05-11T01:36:09.137Z,0.00
2018-05-11T01:37:09.127Z,0.00
2018-05-11T01:38:09.118Z,0.00
2018-05-11T01:39:09.110Z,0.00
2018-05-11T01:40:09.100Z,0.00
2018-05-11T01:41:09.090Z,0.00
2018-05-11T01:42:09.081Z,0.00
2018-05-11T01:43:09.072Z,0.00
2018-05-11T01:44:09.064Z,0.00
2018-05-11T01:45:09.053Z,0.00
2018-05-11T01:46:09.046Z,0.00
2018-05-11T01:47:09.035Z,0.00
2018-05-11T01:48:09.027Z,0.00
2018-05-11T01:49:09.017Z,0.00
2018-05-11T01:50:09.008Z,0.00
2018-05-11T01:51:08.999Z,0.00
2018-05-11T01:52:08.990Z,0.00
2018-05-11T01:53:08.980Z,0.00
2018-05-11T01:54:08.971Z,0.00
2018-05-11T01:55:08.962Z,0.00
2018-05-11T01:56:08.954Z,0.00
2018-05-11T01:57:08.945Z,0.00
2018-05-11T01:58:08.935Z,0.00
2018-05-11T01:59:08.926Z,0.00
2018-05-11T02:00:08.917Z,0.00
2018-05-11T02:01:08.908Z,0.00
2018-05-11T02:02:08.898Z,0.00
2018-05-11T02:03:08.889Z,0.00
2018-05-11T02:04:08.881Z,0.00
2018-05-11T02:05:08.871Z,0.00
2018-05-11T02:06:08.864Z,0.00
2018-05-11T02:07:08.853Z,0.00
2018-05-11T02:08:08.844Z,0.00
2018-05-11T02:09:08.834Z,0.00
2018-05-11T02:10:08.825Z,0.00
2018-05-11T02:11:08.818Z,0.00
2018-05-11T02:12:08.807Z,0.00
2018-05-11T02:13:08.798Z,0.00
2018-05-11T02:14:08.789Z,0.00
2018-05-11T02:15:08.780Z,0.00
2018-05-11T02:16:08.771Z,0.00
2018-05-11T02:17:08.760Z,0.00
2018-05-11T02:18:08.751Z,0.00
2018-05-11T02:19:08.742Z,0.00
2018-05-11T02:20:08.733Z,0.00
2018-05-11T02:21:08.723Z,0.00
2018-05-11T02:22:08.714Z,0.00
2018-05-11T02:23:08.705Z,0.00
2018-05-11T02:24:08.696Z,0.00
2018-05-11T02:25:08.686Z,0.00
2018-05-11T02:26:08.677Z,0.00
2018-05-11T02:27:08.668Z,0.00
2018-05-11T02:28:08.658Z,0.00
2018-05-11T02:29:08.648Z,0.00
2018-05-11T02:30:08.640Z,0.00
2018-05-11T02:31:08.630Z,0.00
2018-05-11T02:32:08.621Z,0.00
2018-05-11T02:33:08.614Z,0.00
2018-05-11T02:34:08.601Z,0.00
2018-05-11T02:35:08.595Z,0.00
2018-05-11T02:36:08.592Z,0.00
2018-05-11T02:37:08.572Z,0.00
2018-05-11T02:38:08.578Z,0.00
2018-05-11T02:39:08.555Z,0.00
2018-05-11T02:40:08.545Z,0.00
2018-05-11T02:41:08.537Z,0.00
2018-05-11T02:42:08.527Z,0.00
2018-05-11T02:43:08.516Z,0.00
2018-05-11T02:44:08.507Z,0.00
2018-05-11T02:45:08.497Z,0.00
2018-05-11T02:46:08.487Z,0.00
2018-05-11T02:47:08.479Z,0.00
2018-05-11T02:48:08.468Z,0.00
2018-05-11T02:49:08.460Z,0.00
2018-05-11T02:50:08.454Z,0.00
2018-05-11T02:51:08.441Z,0.00
2018-05-11T02:52:08.434Z,0.00
2018-05-11T02:53:08.424Z,0.00
2018-05-11T02:54:08.411Z,0.00
2018-05-11T02:55:08.401Z,0.00
2018-05-11T02:56:08.400Z,0.00
2018-05-11T02:57:08.385Z,0.00
2018-05-11T02:58:08.374Z,0.00
2018-05-11T02:59:08.364Z,0.00
2018-05-11T03:00:08.353Z,0.00
2018-05-11T03:01:08.342Z,0.00
2018-05-11T03:02:08.333Z,0.00
2018-05-11T03:03:08.326Z,0.00
2018-05-11T03:04:08.314Z,0.00
2018-05-11T03:05:08.309Z,0.00
2018-05-11T03:06:08.298Z,0.00
2018-05-11T03:07:08.285Z,0.00
2018-05-11T03:08:08.275Z,0.00
2018-05-11T03:09:08.265Z,0.00
2018-05-11T03:10:08.256Z,0.00
2018-05-11T03:11:08.246Z,0.00
2018-05-11T03:12:08.238Z,0.00
2018-05-11T03:13:08.225Z,0.00
2018-05-11T03:14:08.218Z,0.00
2018-05-11T03:15:08.206Z,0.00
2018-05-11T03:16:08.199Z,4.00
2018-05-11T03:17:08.186Z,4.00
2018-05-11T03:18:08.182Z,4.00
2018-05-11T03:19:08.167Z,4.00
2018-05-11T03:20:08.161Z,0.00
2018-05-11T03:21:08.147Z,4.00
2018-05-11T03:22:08.138Z,4.00
2018-05-11T03:23:08.131Z,4.00
2018-05-11T03:24:08.121Z,4.00
2018-05-11T03:25:08.108Z,4.00
2018-05-11T03:26:08.098Z,8.00
2018-05-11T03:27:08.089Z,8.00
2018-05-11T03:28:08.079Z,12.00
2018-05-11T03:29:08.068Z,12.00
2018-05-11T03:30:08.059Z,12.00
2018-05-11T03:31:08.049Z,16.00
2018-05-11T03:32:08.039Z,20.00
2018-05-11T03:33:08.030Z,20.00
2018-05-11T03:34:08.019Z,24.00
2018-05-11T03:35:08.010Z,28.00
2018-05-11T03:36:08.006Z,32.00
2018-05-11T03:37:07.990Z,36.00
2018-05-11T03:38:07.980Z,44.00
2018-05-11T03:39:07.971Z,48.00
2018-05-11T03:40:07.961Z,56.00
2018-05-11T03:41:07.950Z,60.00
2018-05-11T03:42:07.943Z,68.00
2018-05-11T03:43:07.931Z,76.00
2018-05-11T03:44:07.921Z,84.00
2018-05-11T03:45:07.911Z,92.00
2018-05-11T03:46:07.901Z,104.00
2018-05-11T03:47:07.891Z,116.00
2018-05-11T03:48:07.882Z,128.00
2018-05-11T03:49:07.870Z,140.00
2018-05-11T03:50:07.860Z,156.00
2018-05-11T03:51:07.851Z,172.00
2018-05-11T03:52:07.851Z,188.00
2018-05-11T03:53:07.831Z,200.00
2018-05-11T03:54:07.820Z,220.00
2018-05-11T03:55:07.812Z,240.00
2018-05-11T03:56:07.802Z,256.00
2018-05-11T03:57:07.791Z,276.00
2018-05-11T03:58:07.781Z,296.00
2018-05-11T03:59:07.772Z,320.00
2018-05-11T04:00:07.762Z,344.00
2018-05-11T04:01:07.751Z,368.00
2018-05-11T04:02:07.741Z,392.00
2018-05-11T04:03:07.731Z,416.00
2018-05-11T04:04:07.722Z,444.00
2018-05-11T04:05:07.712Z,472.00
2018-05-11T04:06:07.701Z,496.00
2018-05-11T04:07:07.693Z,520.00
2018-05-11T04:08:07.681Z,548.00
2018-05-11T04:09:07.672Z,576.00
2018-05-11T04:10:07.660Z,612.00
2018-05-11T04:11:07.651Z,648.00
2018-05-11T04:12:07.641Z,688.00
2018-05-11T04:13:07.633Z,732.00
2018-05-11T04:14:07.620Z,768.00
2018-05-11T04:15:07.610Z,800.00
2018-05-11T04:16:07.601Z,828.00
2018-05-11T04:17:07.594Z,872.00
2018-05-11T04:18:07.580Z,932.00
2018-05-11T04:19:07.570Z,996.00
2018-05-11T04:20:07.560Z,1052.00
2018-05-11T04:21:07.550Z,1084.00
2018-05-11T04:22:07.540Z,1116.00
2018-05-11T04:23:07.530Z,1152.00
2018-05-11T04:24:07.521Z,1196.00
2018-05-11T04:25:07.510Z,1240.00
2018-05-11T04:26:07.500Z,1276.00
2018-05-11T04:27:07.490Z,1320.00
2018-05-11T04:28:07.480Z,1376.00
2018-05-11T04:29:07.473Z,1428.00
2018-05-11T04:30:07.489Z,1468.00
2018-05-11T04:31:07.451Z,1512.00
2018-05-11T04:32:07.442Z,1576.00
2018-05-11T04:33:07.433Z,1656.00
2018-05-11T04:34:07.421Z,1716.00
2018-05-11T04:35:07.411Z,1760.00
2018-05-11T04:36:07.401Z,1824.00
2018-05-11T04:37:07.413Z,1932.00
2018-05-11T04:38:07.381Z,2044.00
2018-05-11T04:39:07.371Z,2132.00
2018-05-11T04:40:07.361Z,2132.00
2018-05-11T04:41:07.352Z,2040.00
2018-05-11T04:42:07.341Z,1948.00
2018-05-11T04:43:07.331Z,1928.00
2018-05-11T04:44:07.322Z,1988.00
2018-05-11T04:45:07.311Z,2108.00
2018-05-11T04:46:07.303Z,2220.00
2018-05-11T04:47:07.291Z,2268.00
2018-05-11T04:48:07.283Z,2284.00
2018-05-11T04:49:07.271Z,2268.00
2018-05-11T04:50:07.261Z,2332.00
2018-05-11T04:51:07.251Z,2408.00
2018-05-11T04:52:07.245Z,2476.00
2018-05-11T04:53:07.233Z,2584.00
2018-05-11T04:54:07.221Z,2772.00
2018-05-11T04:55:07.212Z,2964.00
2018-05-11T04:56:07.202Z,3160.00
2018-05-11T04:57:07.191Z,3304.00
2018-05-11T04:58:07.182Z,3312.00
2018-05-11T04:59:07.173Z,3248.00
2018-05-11T05:00:07.168Z,3288.00
2018-05-11T05:01:07.157Z,3320.00
2018-05-11T05:02:07.144Z,3428.00
2018-05-11T05:03:07.135Z,3544.00
2018-05-11T05:04:07.126Z,3488.00
2018-05-11T05:05:07.115Z,3416.00
2018-05-11T05:06:07.107Z,3608.00
2018-05-11T05:07:07.098Z,3576.00
2018-05-11T05:08:07.093Z,3484.00
2018-05-11T05:09:07.083Z,3496.00
2018-05-11T05:10:07.070Z,3540.00
2018-05-11T05:11:07.060Z,3564.00
2018-05-11T05:12:07.052Z,3628.00
2018-05-11T05:13:07.042Z,3720.00
2018-05-11T05:14:07.033Z,3776.00
2018-05-11T05:15:07.025Z,3860.00
2018-05-11T05:16:07.019Z,3936.00
2018-05-11T05:17:07.005Z,4120.00
2018-05-11T05:18:06.996Z,4248.00
2018-05-11T05:19:07.080Z,4260.00
2018-05-11T05:20:06.979Z,4332.00
2018-05-11T05:21:06.969Z,4472.00
2018-05-11T05:22:06.960Z,4632.00
2018-05-11T05:23:06.952Z,4876.00
2018-05-11T05:24:06.942Z,5392.00
2018-05-11T05:25:06.933Z,5952.00
2018-05-11T05:26:06.924Z,6400.00
2018-05-11T05:27:06.915Z,6456.00
2018-05-11T05:28:06.907Z,6180.00
2018-05-11T05:29:06.903Z,5776.00
2018-05-11T05:30:06.889Z,5484.00
2018-05-11T05:31:06.883Z,5404.00
2018-05-11T05:32:06.872Z,5328.00
2018-05-11T05:33:06.889Z,5180.00
2018-05-11T05:34:06.854Z,5172.00
2018-05-11T05:35:06.847Z,5304.00
2018-05-11T05:36:06.838Z,5496.00
2018-05-11T05:37:06.829Z,5628.00
2018-05-11T05:38:06.820Z,5680.00
2018-05-11T05:39:06.888Z,5676.00
2018-05-11T05:40:06.804Z,5648.00
2018-05-11T05:41:06.795Z,5684.00
2018-05-11T05:42:06.787Z,5788.00
2018-05-11T05:43:06.779Z,5864.00
2018-05-11T05:44:06.771Z,5940.00
2018-05-11T05:45:06.761Z,6008.00
2018-05-11T05:46:06.753Z,6024.00
2018-05-11T05:47:06.745Z,6052.00
2018-05-11T05:48:06.736Z,6196.00
2018-05-11T05:49:06.728Z,6648.00
2018-05-11T05:50:06.720Z,7284.00
2018-05-11T05:51:06.711Z,7656.00
2018-05-11T05:52:06.739Z,7452.00
2018-05-11T05:53:06.694Z,7108.00
2018-05-11T05:54:06.686Z,6780.00
2018-05-11T05:55:06.678Z,6872.00
2018-05-11T05:56:06.670Z,6920.00
2018-05-11T05:57:06.665Z,6920.00
2018-05-11T05:58:06.655Z,6944.00
2018-05-11T05:59:06.649Z,6956.00
2018-05-11T06:00:06.640Z,6932.00
2018-05-11T06:01:06.632Z,6908.00
2018-05-11T06:02:06.621Z,6924.00
2018-05-11T06:03:06.614Z,6924.00
2018-05-11T06:04:06.606Z,6976.00
2018-05-11T06:05:06.597Z,7124.00
2018-05-11T06:06:06.589Z,7244.00
2018-05-11T06:07:06.582Z,7364.00
2018-05-11T06:08:06.630Z,7420.00
2018-05-11T06:09:06.565Z,7456.00
2018-05-11T06:10:06.563Z,7492.00
2018-05-11T06:11:06.550Z,7540.00
2018-05-11T06:12:06.542Z,7628.00
2018-05-11T06:13:06.542Z,7700.00
2018-05-11T06:14:06.526Z,7812.00
2018-05-11T06:15:06.518Z,7908.00
2018-05-11T06:16:06.510Z,7956.00
2018-05-11T06:17:06.502Z,7988.00
2018-05-11T06:18:06.494Z,8040.00
2018-05-11T06:19:06.487Z,8104.00
2018-05-11T06:20:06.480Z,8260.00
2018-05-11T06:21:06.470Z,8236.00
2018-05-11T06:22:06.565Z,8324.00
2018-05-11T06:23:06.456Z,8452.00
2018-05-11T06:24:06.448Z,8428.00
2018-05-11T06:25:06.442Z,8468.00
2018-05-11T06:26:06.432Z,8580.00
2018-05-11T06:27:06.430Z,8836.00
2018-05-11T06:28:06.419Z,9124.00
2018-05-11T06:29:06.412Z,9220.00
2018-05-11T06:30:06.403Z,9300.00
2018-05-11T06:31:06.400Z,9408.00
2018-05-11T06:32:06.389Z,9576.00
2018-05-11T06:33:06.383Z,9808.00
2018-05-11T06:34:06.373Z,9916.00
2018-05-11T06:35:06.366Z,9848.00
2018-05-11T06:36:06.360Z,9912.00
2018-05-11T06:37:06.366Z,10128.00
2018-05-11T06:38:06.344Z,10232.00
2018-05-11T06:39:06.337Z,10388.00
2018-05-11T06:40:06.331Z,10700.00
2018-05-11T06:41:06.323Z,10956.00
2018-05-11T06:42:06.317Z,11004.00
2018-05-11T06:43:06.310Z,10960.00
2018-05-11T06:44:06.305Z,11148.00
2018-05-11T06:45:06.296Z,11332.00
2018-05-11T06:46:06.406Z,11260.00
2018-05-11T06:47:06.283Z,12708.00
2018-05-11T06:48:06.276Z,13496.00
2018-05-11T06:49:06.269Z,12440.00
2018-05-11T06:50:06.263Z,12576.00
2018-05-11T06:51:06.256Z,14364.00
2018-05-11T06:52:06.251Z,22464.00
2018-05-11T06:53:06.243Z,26880.00
2018-05-11T06:54:06.236Z,17888.00
2018-05-11T06:55:06.231Z,14968.00
2018-05-11T06:56:06.224Z,15836.00
2018-05-11T06:57:06.217Z,19584.00
2018-05-11T06:58:06.211Z,24000.00
2018-05-11T06:59:06.205Z,19712.00
2018-05-11T07:00:06.200Z,18368.00
2018-05-11T07:01:06.194Z,20672.00
2018-05-11T07:02:06.188Z,22560.00
2018-05-11T07:03:06.183Z,26880.00
2018-05-11T07:04:06.177Z,36320.00
2018-05-11T07:05:06.171Z,39776.00
2018-05-11T07:06:06.167Z,40672.00
2018-05-11T07:07:06.162Z,40224.00
2018-05-11T07:08:06.257Z,41600.00
2018-05-11T07:09:06.152Z,41408.00
2018-05-11T07:10:06.147Z,40832.00
2018-05-11T07:11:06.143Z,43200.00
2018-05-11T07:12:06.139Z,40640.00
2018-05-11T07:13:06.135Z,43200.00
2018-05-11T07:14:06.132Z,42784.00
2018-05-11T07:15:06.130Z,43744.00
2018-05-11T07:16:06.128Z,44832.00
2018-05-11T07:17:06.124Z,46976.00
2018-05-11T07:18:06.122Z,42848.00
2018-05-11T07:19:06.121Z,44416.00
2018-05-11T07:20:06.120Z,42848.00
2018-05-11T07:21:06.121Z,43456.00
2018-05-11T07:22:06.117Z,47040.00
2018-05-11T07:23:06.116Z,45056.00
2018-05-11T07:24:06.124Z,45088.00
2018-05-11T07:25:06.117Z,46112.00
2018-05-11T07:26:06.114Z,46976.00
2018-05-11T07:27:06.113Z,44608.00
2018-05-11T07:28:06.113Z,45472.00
2018-05-11T07:29:06.112Z,46176.00
2018-05-11T07:30:06.117Z,46656.00
2018-05-11T07:31:06.112Z,47424.00
2018-05-11T07:32:06.119Z,48576.00
2018-05-11T07:33:06.113Z,48672.00
2018-05-11T07:34:06.116Z,48544.00
2018-05-11T07:35:06.114Z,47392.00
2018-05-11T07:36:06.120Z,51680.00
2018-05-11T07:37:06.115Z,45760.00
2018-05-11T07:38:06.117Z,34592.00
2018-05-11T07:39:06.122Z,50560.00
2018-05-11T07:40:06.120Z,47648.00
2018-05-11T07:41:06.121Z,48896.00
2018-05-11T07:42:06.123Z,51232.00
2018-05-11T07:43:06.165Z,54176.00
2018-05-11T07:44:06.129Z,49504.00
2018-05-11T07:45:06.223Z,52512.00
2018-05-11T07:46:06.132Z,52928.00
2018-05-11T07:47:06.136Z,52224.00
2018-05-11T07:48:06.138Z,49408.00
2018-05-11T07:49:06.141Z,53632.00
2018-05-11T07:50:06.144Z,53920.00
2018-05-11T07:51:06.148Z,49536.00
2018-05-11T07:52:06.154Z,52064.00
2018-05-11T07:53:06.156Z,44704.00
2018-05-11T07:54:06.157Z,52768.00
2018-05-11T07:55:06.161Z,50272.00
2018-05-11T07:56:06.169Z,54624.00
2018-05-11T07:57:06.168Z,57568.00
2018-05-11T07:58:06.174Z,50912.00
2018-05-11T07:59:06.178Z,54336.00
2018-05-11T08:00:06.184Z,53920.00
2018-05-11T08:01:06.186Z,31008.00
2018-05-11T08:02:06.190Z,53888.00
2018-05-11T08:03:06.195Z,31008.00
2018-05-11T08:04:06.202Z,58080.00
2018-05-11T08:05:06.268Z,56544.00
2018-05-11T08:06:06.207Z,43328.00
2018-05-11T08:07:06.213Z,25728.00
2018-05-11T08:08:06.221Z,26656.00
2018-05-11T08:09:06.220Z,29056.00
2018-05-11T08:10:06.227Z,49280.00
2018-05-11T08:11:06.228Z,53408.00
2018-05-11T08:12:06.232Z,56384.00
2018-05-11T08:13:06.235Z,56736.00
2018-05-11T08:14:06.345Z,58240.00
2018-05-11T08:15:06.244Z,58784.00
2018-05-11T08:16:06.249Z,56288.00
2018-05-11T08:17:06.254Z,55488.00
2018-05-11T08:18:06.260Z,59296.00
2018-05-11T08:19:06.272Z,59808.00
2018-05-11T08:20:06.271Z,44672.00
2018-05-11T08:21:06.276Z,56224.00
2018-05-11T08:22:06.282Z,56288.00
2018-05-11T08:23:06.289Z,56128.00
2018-05-11T08:24:06.294Z,55904.00
2018-05-11T08:25:06.300Z,57472.00
2018-05-11T08:26:06.307Z,54208.00
2018-05-11T08:27:06.313Z,52928.00
2018-05-11T08:28:06.320Z,54752.00
2018-05-11T08:29:06.326Z,57344.00
2018-05-11T08:30:06.334Z,55328.00
2018-05-11T08:31:06.341Z,55296.00
2018-05-11T08:32:06.349Z,59040.00
2018-05-11T08:33:06.355Z,58784.00
2018-05-11T08:34:06.369Z,59040.00
2018-05-11T08:35:06.371Z,56128.00
2018-05-11T08:36:06.381Z,59520.00
2018-05-11T08:37:06.386Z,58176.00
2018-05-11T08:38:06.398Z,59104.00
2018-05-11T08:39:06.402Z,59456.00
2018-05-11T08:40:06.420Z,62208.00
2018-05-11T08:41:06.421Z,63072.00
2018-05-11T08:42:06.427Z,64544.00
2018-05-11T08:43:06.436Z,68736.00
2018-05-11T08:44:06.445Z,63712.00
2018-05-11T08:45:06.458Z,66016.00
2018-05-11T08:46:06.461Z,70976.00
2018-05-11T08:47:06.472Z,66720.00
2018-05-11T08:48:06.479Z,70976.00
2018-05-11T08:49:06.487Z,67104.00
2018-05-11T08:50:06.499Z,71712.00
2018-05-11T08:51:06.506Z,70784.00
2018-05-11T08:52:06.515Z,75392.00
2018-05-11T08:53:06.523Z,68416.00
2018-05-11T08:54:06.536Z,69248.00
2018-05-11T08:55:06.542Z,79488.00
2018-05-11T08:56:06.552Z,78080.00
2018-05-11T08:57:06.575Z,71328.00
2018-05-11T08:58:06.577Z,71232.00
2018-05-11T08:59:06.581Z,74080.00
2018-05-11T09:00:06.591Z,69056.00
2018-05-11T09:01:06.600Z,71968.00
2018-05-11T09:02:06.611Z,73664.00
2018-05-11T09:03:06.808Z,72064.00
2018-05-11T09:04:06.632Z,67744.00
2018-05-11T09:05:06.643Z,71520.00
2018-05-11T09:06:06.658Z,66400.00
2018-05-11T09:07:06.661Z,72352.00
2018-05-11T09:08:06.671Z,67840.00
2018-05-11T09:09:06.685Z,69120.00
2018-05-11T09:10:06.691Z,65600.00
2018-05-11T09:11:06.701Z,72800.00
2018-05-11T09:12:06.711Z,63168.00
2018-05-11T09:13:06.721Z,59328.00
2018-05-11T09:14:06.732Z,65184.00
2018-05-11T09:15:06.743Z,61312.00
2018-05-11T09:16:06.754Z,60864.00
2018-05-11T09:17:06.764Z,62240.00
2018-05-11T09:18:06.774Z,61056.00
2018-05-11T09:19:06.785Z,61984.00
2018-05-11T09:20:06.796Z,59136.00
2018-05-11T09:21:06.806Z,60512.00
2018-05-11T09:22:06.886Z,56704.00
2018-05-11T09:23:06.826Z,56096.00
2018-05-11T09:24:06.840Z,57504.00
2018-05-11T09:25:06.847Z,57472.00
2018-05-11T09:26:06.858Z,63008.00
2018-05-11T09:27:06.868Z,58592.00
2018-05-11T09:28:06.878Z,63328.00
2018-05-11T09:29:06.887Z,60320.00
2018-05-11T09:30:06.897Z,60640.00
2018-05-11T09:31:06.908Z,64512.00
2018-05-11T09:32:06.920Z,63872.00
2018-05-11T09:33:06.928Z,66272.00
2018-05-11T09:34:06.939Z,67168.00
2018-05-11T09:35:06.951Z,66880.00
2018-05-11T09:36:06.960Z,67648.00
2018-05-11T09:37:06.969Z,68384.00
2018-05-11T09:38:06.981Z,65216.00
2018-05-11T09:39:06.996Z,68384.00
2018-05-11T09:40:07.003Z,67648.00
2018-05-11T09:41:07.014Z,67648.00
2018-05-11T09:42:07.026Z,68064.00
2018-05-11T09:43:07.037Z,64256.00
2018-05-11T09:44:07.050Z,67712.00
2018-05-11T09:45:07.061Z,66208.00
2018-05-11T09:46:07.073Z,69344.00
2018-05-11T09:47:07.089Z,68160.00
2018-05-11T09:48:07.099Z,69152.00
2018-05-11T09:49:07.111Z,67776.00
2018-05-11T09:50:07.121Z,65824.00
2018-05-11T09:51:07.136Z,70016.00
2018-05-11T09:52:07.149Z,32160.00
2018-05-11T09:53:07.157Z,45472.00
2018-05-11T09:54:07.170Z,36608.00
2018-05-11T09:55:07.211Z,45312.00
2018-05-11T09:56:07.193Z,74176.00
2018-05-11T09:57:07.203Z,55136.00
2018-05-11T09:58:07.214Z,47360.00
2018-05-11T09:59:07.226Z,34048.00
2018-05-11T10:00:07.237Z,46592.00
2018-05-11T10:01:07.247Z,30176.00
2018-05-11T10:02:07.259Z,28000.00
2018-05-11T10:03:07.417Z,40128.00
2018-05-11T10:04:07.276Z,29952.00
2018-05-11T10:05:07.284Z,30464.00
2018-05-11T10:06:07.293Z,30400.00
2018-05-11T10:07:07.301Z,30048.00
2018-05-11T10:08:07.309Z,48640.00
2018-05-11T10:09:07.316Z,25536.00
2018-05-11T10:10:07.324Z,23488.00
2018-05-11T10:11:07.334Z,23104.00
2018-05-11T10:12:07.338Z,22560.00
2018-05-11T10:13:07.344Z,24576.00
2018-05-11T10:14:07.350Z,36544.00
2018-05-11T10:15:07.356Z,73568.00
2018-05-11T10:16:07.362Z,33600.00
2018-05-11T10:17:07.368Z,34304.00
2018-05-11T10:18:07.374Z,33952.00
2018-05-11T10:19:07.379Z,37760.00
2018-05-11T10:20:07.385Z,63424.00
2018-05-11T10:21:07.390Z,45280.00
2018-05-11T10:22:07.396Z,37888.00
2018-05-11T10:23:07.403Z,76928.00
2018-05-11T10:24:07.409Z,34304.00
2018-05-11T10:25:07.415Z,26368.00
2018-05-11T10:26:07.421Z,25120.00
2018-05-11T10:27:07.428Z,46944.00
2018-05-11T10:28:07.434Z,30624.00
2018-05-11T10:29:07.522Z,27936.00
2018-05-11T10:30:07.446Z,29344.00
2018-05-11T10:31:07.452Z,59648.00
2018-05-11T10:32:07.458Z,60512.00
2018-05-11T10:33:07.462Z,38720.00
2018-05-11T10:34:07.468Z,42400.00
2018-05-11T10:35:07.474Z,29024.00
2018-05-11T10:36:07.480Z,74912.00
2018-05-11T10:37:07.485Z,33888.00
2018-05-11T10:38:07.490Z,28640.00
2018-05-11T10:39:07.498Z,26688.00
2018-05-11T10:40:07.502Z,27872.00
2018-05-11T10:41:07.510Z,30080.00
2018-05-11T10:42:07.511Z,26240.00
2018-05-11T10:43:07.516Z,24064.00
2018-05-11T10:44:07.522Z,22816.00
2018-05-11T10:45:07.525Z,22816.00
2018-05-11T10:46:07.529Z,30112.00
2018-05-11T10:47:07.534Z,24672.00
2018-05-11T10:48:07.539Z,24992.00
2018-05-11T10:49:07.541Z,25536.00
2018-05-11T10:50:07.549Z,30208.00
2018-05-11T10:51:07.549Z,41760.00
2018-05-11T10:52:07.552Z,49376.00
2018-05-11T10:53:07.554Z,79520.00
2018-05-11T10:54:07.559Z,39872.00
2018-05-11T10:55:07.568Z,79968.00
2018-05-11T10:56:07.568Z,85216.00
2018-05-11T10:57:07.572Z,61408.00
2018-05-11T10:58:07.578Z,32064.00
2018-05-11T10:59:07.587Z,36704.00
2018-05-11T11:00:07.589Z,82304.00
2018-05-11T11:01:07.594Z,76512.00
2018-05-11T11:02:07.599Z,47072.00
2018-05-11T11:03:07.605Z,75648.00
2018-05-11T11:04:07.612Z,58528.00
2018-05-11T11:05:07.618Z,67296.00
2018-05-11T11:06:07.625Z,70432.00
2018-05-11T11:07:07.634Z,65280.00
2018-05-11T11:08:07.643Z,23328.00
2018-05-11T11:09:07.649Z,24288.00
2018-05-11T11:10:07.657Z,30208.00
2018-05-11T11:11:07.665Z,22912.00
2018-05-11T11:12:07.673Z,18272.00
2018-05-11T11:13:07.678Z,17344.00
2018-05-11T11:14:07.690Z,18944.00
2018-05-11T11:15:07.703Z,21056.00
2018-05-11T11:16:07.698Z,21504.00
2018-05-11T11:17:07.703Z,20160.00
2018-05-11T11:18:07.709Z,19104.00
2018-05-11T11:19:07.712Z,17760.00
2018-05-11T11:20:07.717Z,17376.00
2018-05-11T11:21:07.720Z,17376.00
2018-05-11T11:22:07.724Z,17088.00
2018-05-11T11:23:07.731Z,16576.00
2018-05-11T11:24:07.733Z,16320.00
2018-05-11T11:25:07.736Z,16160.00
2018-05-11T11:26:07.738Z,15572.00
2018-05-11T11:27:07.744Z,14936.00
2018-05-11T11:28:07.743Z,13680.00
2018-05-11T11:29:07.744Z,12768.00
2018-05-11T11:30:07.749Z,12300.00
2018-05-11T11:31:07.753Z,12004.00
2018-05-11T11:32:07.751Z,11956.00
2018-05-11T11:33:07.752Z,11300.00
2018-05-11T11:34:07.753Z,11032.00
2018-05-11T11:35:07.755Z,10008.00
2018-05-11T11:36:07.756Z,9424.00
2018-05-11T11:37:07.757Z,9084.00
2018-05-11T11:38:07.757Z,9084.00
2018-05-11T11:39:07.758Z,9048.00
2018-05-11T11:40:07.759Z,9036.00
2018-05-11T11:41:07.829Z,8648.00
2018-05-11T11:42:07.864Z,8504.00
2018-05-11T11:43:07.759Z,8296.00
2018-05-11T11:44:07.758Z,8084.00
2018-05-11T11:45:07.758Z,8148.00
2018-05-11T11:46:07.758Z,7812.00
2018-05-11T11:47:07.764Z,7772.00
2018-05-11T11:48:07.758Z,7980.00
2018-05-11T11:49:07.760Z,7908.00
2018-05-11T11:50:07.756Z,7816.00
2018-05-11T11:51:07.756Z,7740.00
2018-05-11T11:52:07.755Z,7896.00
2018-05-11T11:53:07.753Z,7852.00
2018-05-11T11:54:07.753Z,7984.00
2018-05-11T11:55:07.751Z,8132.00
2018-05-11T11:56:07.755Z,8476.00
2018-05-11T11:57:07.749Z,8692.00
2018-05-11T11:58:07.748Z,9112.00
2018-05-11T11:59:07.747Z,9720.00
2018-05-11T12:00:07.746Z,10396.00
2018-05-11T12:01:07.744Z,11248.00
2018-05-11T12:02:07.743Z,11884.00
2018-05-11T12:03:07.742Z,12528.00
2018-05-11T12:04:07.741Z,13308.00
2018-05-11T12:05:07.739Z,14540.00
2018-05-11T12:06:07.738Z,16416.00
2018-05-11T12:07:07.737Z,18272.00
2018-05-11T12:08:07.737Z,22048.00
2018-05-11T12:09:07.736Z,22016.00
2018-05-11T12:10:07.735Z,22368.00
2018-05-11T12:11:07.735Z,31520.00
2018-05-11T12:12:07.735Z,23776.00
2018-05-11T12:13:07.734Z,21376.00
2018-05-11T12:14:07.735Z,19552.00
2018-05-11T12:15:07.734Z,17760.00
2018-05-11T12:16:07.740Z,16384.00
2018-05-11T12:17:07.734Z,15052.00